sensor_id;sensor_type;location;lat;lon;timestamp;pressure;altitude;pressure_sealevel;temperature;humidity
28628;BME280;15815;46.760;19.604;2023-01-29T00:02:12;101024.44;;;2.38;95.88
28628;BME280;15815;46.760;19.604;2023-01-29T00:04:37;101038.94;;;2.52;96.36
28628;BME280;15815;46.760;19.604;2023-01-29T00:07:04;101011.44;;;2.30;95.66
28628;BME280;15815;46.760;19.604;2023-01-29T00:09:29;101036.19;;;2.43;96.32
28628;BME280;15815;46.760;19.604;2023-01-29T00:11:55;101043.53;;;2.48;95.63
28628;BME280;15815;46.760;19.604;2023-01-29T00:14:23;101042.53;;;2.53;95.15
28628;BME280;15815;46.760;19.604;2023-01-29T00:16:49;101011.25;;;2.35;94.76
28628;BME280;15815;46.760;19.604;2023-01-29T00:19:14;101025.13;;;2.35;94.93
28628;BME280;15815;46.760;19.604;2023-01-29T00:21:40;101017.34;;;2.20;87.98
28628;BME280;15815;46.760;19.604;2023-01-29T00:24:06;101036.06;;;2.31;88.63
28628;BME280;15815;46.760;19.604;2023-01-29T00:26:31;101048.75;;;2.41;89.41
28628;BME280;15815;46.760;19.604;2023-01-29T00:28:57;101031.47;;;2.35;88.67
28628;BME280;15815;46.760;19.604;2023-01-29T00:31:23;101054.44;;;2.53;89.86
28628;BME280;15815;46.760;19.604;2023-01-29T00:33:50;101050.53;;;2.54;89.70
28628;BME280;15815;46.760;19.604;2023-01-29T00:36:18;101023.16;;;2.35;89.02
28628;BME280;15815;46.760;19.604;2023-01-29T00:38:43;101050.72;;;2.49;87.92
28628;BME280;15815;46.760;19.604;2023-01-29T00:41:11;101045.50;;;2.39;85.48
28628;BME280;15815;46.760;19.604;2023-01-29T00:43:37;101036.56;;;2.33;84.96
28628;BME280;15815;46.760;19.604;2023-01-29T00:46:02;101015.69;;;2.18;84.33
28628;BME280;15815;46.760;19.604;2023-01-29T00:48:28;101055.63;;;2.35;82.36
28628;BME280;15815;46.760;19.604;2023-01-29T00:50:54;101041.16;;;2.21;82.33
28628;BME280;15815;46.760;19.604;2023-01-29T00:53:20;101062.81;;;2.36;82.32
28628;BME280;15815;46.760;19.604;2023-01-29T00:55:46;101058.75;;;2.33;81.74
28628;BME280;15815;46.760;19.604;2023-01-29T00:58:11;101052.72;;;2.31;79.66
28628;BME280;15815;46.760;19.604;2023-01-29T01:00:37;101054.38;;;2.24;78.56
28628;BME280;15815;46.760;19.604;2023-01-29T01:03:02;101051.75;;;2.27;79.93
28628;BME280;15815;46.760;19.604;2023-01-29T01:05:28;101068.22;;;2.32;78.99
28628;BME280;15815;46.760;19.604;2023-01-29T01:07:55;101061.19;;;2.35;78.99
28628;BME280;15815;46.760;19.604;2023-01-29T01:10:25;101064.00;;;2.26;76.93
28628;BME280;15815;46.760;19.604;2023-01-29T01:13:05;101069.69;;;2.30;76.47
28628;BME280;15815;46.760;19.604;2023-01-29T01:15:34;101068.25;;;2.24;75.63
28628;BME280;15815;46.760;19.604;2023-01-29T01:18:02;101071.66;;;2.29;76.74
28628;BME280;15815;46.760;19.604;2023-01-29T01:20:30;101067.09;;;2.25;75.19
28628;BME280;15815;46.760;19.604;2023-01-29T01:23:00;101067.75;;;2.22;76.02
28628;BME280;15815;46.760;19.604;2023-01-29T01:25:26;101080.97;;;2.25;75.72
28628;BME280;15815;46.760;19.604;2023-01-29T01:27:56;101090.09;;;2.16;74.93
28628;BME280;15815;46.760;19.604;2023-01-29T01:30:22;101083.94;;;2.20;74.92
28628;BME280;15815;46.760;19.604;2023-01-29T01:32:48;101083.41;;;2.17;74.63
28628;BME280;15815;46.760;19.604;2023-01-29T01:35:17;101078.03;;;2.12;74.69
28628;BME280;15815;46.760;19.604;2023-01-29T01:37:42;101069.91;;;2.07;74.66
28628;BME280;15815;46.760;19.604;2023-01-29T01:40:14;101080.81;;;2.12;74.39
28628;BME280;15815;46.760;19.604;2023-01-29T01:42:40;101071.84;;;2.07;75.55
28628;BME280;15815;46.760;19.604;2023-01-29T01:45:22;101082.28;;;2.10;74.26
28628;BME280;15815;46.760;19.604;2023-01-29T01:47:53;101059.34;;;1.92;74.05
28628;BME280;15815;46.760;19.604;2023-01-29T01:50:36;101088.66;;;2.10;75.36
28628;BME280;15815;46.760;19.604;2023-01-29T01:53:12;101087.03;;;2.09;75.05
28628;BME280;15815;46.760;19.604;2023-01-29T01:55:47;101096.78;;;2.15;75.75
28628;BME280;15815;46.760;19.604;2023-01-29T01:58:19;101101.38;;;2.11;74.25
28628;BME280;15815;46.760;19.604;2023-01-29T02:00:47;101083.47;;;2.00;75.38
28628;BME280;15815;46.760;19.604;2023-01-29T02:03:13;101109.50;;;2.16;75.67
28628;BME280;15815;46.760;19.604;2023-01-29T02:05:41;101089.97;;;2.04;75.51
28628;BME280;15815;46.760;19.604;2023-01-29T02:08:08;101099.44;;;2.03;75.53
28628;BME280;15815;46.760;19.604;2023-01-29T02:10:38;101097.50;;;1.95;74.90
28628;BME280;15815;46.760;19.604;2023-01-29T02:13:05;101111.66;;;2.11;75.04
28628;BME280;15815;46.760;19.604;2023-01-29T02:15:31;101076.94;;;1.88;74.98
28628;BME280;15815;46.760;19.604;2023-01-29T02:17:57;101094.41;;;1.97;74.88
28628;BME280;15815;46.760;19.604;2023-01-29T02:20:29;101115.72;;;2.13;75.13
28628;BME280;15815;46.760;19.604;2023-01-29T02:33:54;101128.47;;;2.06;74.62
28628;BME280;15815;46.760;19.604;2023-01-29T02:44:39;101135.66;;;2.07;75.46
28628;BME280;15815;46.760;19.604;2023-01-29T02:47:32;101141.50;;;2.14;76.27
28628;BME280;15815;46.760;19.604;2023-01-29T02:52:43;101132.38;;;2.05;76.37
28628;BME280;15815;46.760;19.604;2023-01-29T02:55:17;101137.59;;;2.06;77.64
28628;BME280;15815;46.760;19.604;2023-01-29T02:57:46;101139.88;;;2.13;78.34
28628;BME280;15815;46.760;19.604;2023-01-29T03:00:20;101144.78;;;2.07;77.97
28628;BME280;15815;46.760;19.604;2023-01-29T03:05:30;101129.78;;;2.00;77.75
28628;BME280;15815;46.760;19.604;2023-01-29T03:08:01;101141.84;;;2.12;77.39
28628;BME280;15815;46.760;19.604;2023-01-29T03:11:04;101154.91;;;2.03;75.33
28628;BME280;15815;46.760;19.604;2023-01-29T03:16:16;101151.63;;;2.01;76.30
28628;BME280;15815;46.760;19.604;2023-01-29T03:18:59;101144.63;;;2.04;74.87
28628;BME280;15815;46.760;19.604;2023-01-29T03:21:42;101143.31;;;2.01;74.52
28628;BME280;15815;46.760;19.604;2023-01-29T03:24:10;101153.59;;;2.01;74.32
28628;BME280;15815;46.760;19.604;2023-01-29T03:26:38;101145.75;;;2.03;74.82
28628;BME280;15815;46.760;19.604;2023-01-29T03:29:07;101138.09;;;2.00;75.22
28628;BME280;15815;46.760;19.604;2023-01-29T03:31:35;101150.66;;;1.97;74.56
28628;BME280;15815;46.760;19.604;2023-01-29T03:34:12;101145.28;;;1.92;73.93
28628;BME280;15815;46.760;19.604;2023-01-29T03:36:47;101149.69;;;2.02;75.04
28628;BME280;15815;46.760;19.604;2023-01-29T03:39:16;101155.22;;;2.10;75.07
28628;BME280;15815;46.760;19.604;2023-01-29T03:41:49;101136.47;;;1.99;75.28
28628;BME280;15815;46.760;19.604;2023-01-29T03:44:31;101148.69;;;2.06;75.66
28628;BME280;15815;46.760;19.604;2023-01-29T03:47:13;101146.25;;;1.96;76.81
28628;BME280;15815;46.760;19.604;2023-01-29T03:50:33;101157.00;;;2.06;77.97
28628;BME280;15815;46.760;19.604;2023-01-29T03:53:00;101155.53;;;2.09;78.96
28628;BME280;15815;46.760;19.604;2023-01-29T03:55:36;101156.03;;;2.02;80.21
28628;BME280;15815;46.760;19.604;2023-01-29T04:00:59;101150.31;;;2.07;82.37
28628;BME280;15815;46.760;19.604;2023-01-29T04:03:38;101140.38;;;1.98;83.62
28628;BME280;15815;46.760;19.604;2023-01-29T04:06:37;101165.66;;;2.13;84.21
28628;BME280;15815;46.760;19.604;2023-01-29T04:09:11;101159.13;;;2.09;84.77
28628;BME280;15815;46.760;19.604;2023-01-29T04:11:43;101146.56;;;2.03;84.33
28628;BME280;15815;46.760;19.604;2023-01-29T04:14:12;101160.09;;;2.13;84.75
28628;BME280;15815;46.760;19.604;2023-01-29T04:16:44;101157.50;;;2.08;85.09
28628;BME280;15815;46.760;19.604;2023-01-29T04:19:14;101156.53;;;2.04;85.92
28628;BME280;15815;46.760;19.604;2023-01-29T04:21:40;101153.91;;;1.99;87.52
28628;BME280;15815;46.760;19.604;2023-01-29T04:24:06;101162.06;;;1.87;89.33
28628;BME280;15815;46.760;19.604;2023-01-29T04:26:55;101149.34;;;1.86;88.50
28628;BME280;15815;46.760;19.604;2023-01-29T04:32:21;101156.06;;;1.94;88.88
28628;BME280;15815;46.760;19.604;2023-01-29T04:34:59;101174.97;;;2.00;88.79
28628;BME280;15815;46.760;19.604;2023-01-29T04:37:49;101168.09;;;1.89;89.51
28628;BME280;15815;46.760;19.604;2023-01-29T04:40:32;101176.59;;;1.93;89.78
28628;BME280;15815;46.760;19.604;2023-01-29T04:43:38;101171.03;;;1.75;91.40
28628;BME280;15815;46.760;19.604;2023-01-29T04:51:34;101186.19;;;1.78;92.01
28628;BME280;15815;46.760;19.604;2023-01-29T04:54:11;101186.19;;;1.86;90.90
28628;BME280;15815;46.760;19.604;2023-01-29T04:59:19;101188.16;;;1.86;90.70
28628;BME280;15815;46.760;19.604;2023-01-29T05:01:48;101186.19;;;1.78;90.89
28628;BME280;15815;46.760;19.604;2023-01-29T05:04:17;101185.22;;;1.91;90.62
28628;BME280;15815;46.760;19.604;2023-01-29T05:06:44;101176.41;;;1.89;90.10
28628;BME280;15815;46.760;19.604;2023-01-29T05:09:14;101188.63;;;1.79;91.12
28628;BME280;15815;46.760;19.604;2023-01-29T05:11:44;101173.97;;;1.70;90.48
28628;BME280;15815;46.760;19.604;2023-01-29T05:14:12;101192.72;;;1.82;90.30
28628;BME280;15815;46.760;19.604;2023-01-29T05:17:01;101200.22;;;1.90;90.00
28628;BME280;15815;46.760;19.604;2023-01-29T05:19:28;101197.63;;;1.94;90.43
28628;BME280;15815;46.760;19.604;2023-01-29T05:21:54;101189.94;;;1.91;89.74
28628;BME280;15815;46.760;19.604;2023-01-29T05:24:23;101174.13;;;1.74;90.16
28628;BME280;15815;46.760;19.604;2023-01-29T05:26:53;101188.47;;;1.67;91.52
28628;BME280;15815;46.760;19.604;2023-01-29T05:29:19;101204.78;;;1.86;91.09
28628;BME280;15815;46.760;19.604;2023-01-29T05:31:45;101197.59;;;1.85;90.72
28628;BME280;15815;46.760;19.604;2023-01-29T05:34:11;101204.13;;;1.89;91.05
28628;BME280;15815;46.760;19.604;2023-01-29T05:36:37;101192.38;;;1.75;90.43
28628;BME280;15815;46.760;19.604;2023-01-29T05:39:03;101202.19;;;1.81;91.45
28628;BME280;15815;46.760;19.604;2023-01-29T05:41:28;101190.75;;;1.74;91.13
28628;BME280;15815;46.760;19.604;2023-01-29T05:43:54;101193.38;;;1.79;91.09
28628;BME280;15815;46.760;19.604;2023-01-29T05:46:19;101187.16;;;1.82;91.27
28628;BME280;15815;46.760;19.604;2023-01-29T05:48:45;101199.25;;;1.86;91.18
28628;BME280;15815;46.760;19.604;2023-01-29T05:51:10;101196.63;;;1.81;91.08
28628;BME280;15815;46.760;19.604;2023-01-29T05:53:36;101191.41;;;1.71;91.48
28628;BME280;15815;46.760;19.604;2023-01-29T05:56:06;101202.50;;;1.71;91.87
28628;BME280;15815;46.760;19.604;2023-01-29T05:58:32;101189.13;;;1.73;92.17
28628;BME280;15815;46.760;19.604;2023-01-29T06:03:40;101186.84;;;1.83;91.55
28628;BME280;15815;46.760;19.604;2023-01-29T06:06:06;101168.06;;;1.63;92.73
28628;BME280;15815;46.760;19.604;2023-01-29T06:08:32;101166.41;;;1.53;92.81
28628;BME280;15815;46.760;19.604;2023-01-29T06:10:57;101188.59;;;1.62;93.48
28628;BME280;15815;46.760;19.604;2023-01-29T06:13:23;101166.91;;;1.55;93.13
28628;BME280;15815;46.760;19.604;2023-01-29T06:15:49;101198.91;;;1.79;92.84
28628;BME280;15815;46.760;19.604;2023-01-29T06:18:17;101206.91;;;1.80;92.67
28628;BME280;15815;46.760;19.604;2023-01-29T06:20:43;101188.16;;;1.69;92.99
28628;BME280;15815;46.760;19.604;2023-01-29T06:23:09;101212.13;;;1.82;92.56
28628;BME280;15815;46.760;19.604;2023-01-29T06:25:34;101195.31;;;1.70;92.84
28628;BME280;15815;46.760;19.604;2023-01-29T06:28:00;101213.75;;;1.83;92.42
28628;BME280;15815;46.760;19.604;2023-01-29T06:30:25;101184.88;;;1.67;92.61
28628;BME280;15815;46.760;19.604;2023-01-29T06:32:55;101195.81;;;1.72;92.72
28628;BME280;15815;46.760;19.604;2023-01-29T06:35:21;101199.41;;;1.81;92.64
28628;BME280;15815;46.760;19.604;2023-01-29T06:37:47;101181.63;;;1.65;92.18
28628;BME280;15815;46.760;19.604;2023-01-29T06:40:12;101188.28;;;1.64;92.95
28628;BME280;15815;46.760;19.604;2023-01-29T06:42:38;101181.75;;;1.60;93.10
28628;BME280;15815;46.760;19.604;2023-01-29T06:45:04;101209.19;;;1.78;92.91
28628;BME280;15815;46.760;19.604;2023-01-29T06:47:29;101203.50;;;1.92;92.28
28628;BME280;15815;46.760;19.604;2023-01-29T06:49:55;101191.56;;;1.83;92.67
28628;BME280;15815;46.760;19.604;2023-01-29T06:52:20;101205.75;;;1.90;92.41
28628;BME280;15815;46.760;19.604;2023-01-29T06:54:46;101216.22;;;2.02;92.27
28628;BME280;15815;46.760;19.604;2023-01-29T06:57:11;101214.94;;;1.99;92.60
28628;BME280;15815;46.760;19.604;2023-01-29T06:59:37;101207.09;;;2.01;92.27
28628;BME280;15815;46.760;19.604;2023-01-29T07:02:03;101221.28;;;2.08;91.97
28628;BME280;15815;46.760;19.604;2023-01-29T07:04:28;101200.41;;;1.94;92.06
28628;BME280;15815;46.760;19.604;2023-01-29T07:06:54;101221.44;;;2.03;92.24
28628;BME280;15815;46.760;19.604;2023-01-29T07:09:19;101220.13;;;2.09;92.12
28628;BME280;15815;46.760;19.604;2023-01-29T07:11:45;101230.94;;;2.20;92.07
28628;BME280;15815;46.760;19.604;2023-01-29T07:14:10;101221.13;;;2.13;91.94
28628;BME280;15815;46.760;19.604;2023-01-29T07:16:36;101238.13;;;2.21;91.82
28628;BME280;15815;46.760;19.604;2023-01-29T07:19:03;101235.16;;;2.08;91.87
28628;BME280;15815;46.760;19.604;2023-01-29T07:21:29;101236.13;;;2.12;91.65
28628;BME280;15815;46.760;19.604;2023-01-29T07:23:54;101242.84;;;2.20;92.03
28628;BME280;15815;46.760;19.604;2023-01-29T07:26:20;101246.44;;;2.29;91.48
28628;BME280;15815;46.760;19.604;2023-01-29T07:28:45;101245.78;;;2.24;91.81
28628;BME280;15815;46.760;19.604;2023-01-29T07:31:12;101247.38;;;2.16;91.55
28628;BME280;15815;46.760;19.604;2023-01-29T07:33:38;101247.09;;;2.26;91.69
28628;BME280;15815;46.760;19.604;2023-01-29T07:36:08;101242.03;;;2.20;91.55
28628;BME280;15815;46.760;19.604;2023-01-29T07:38:33;101248.56;;;2.24;91.65
28628;BME280;15815;46.760;19.604;2023-01-29T07:40:59;101231.06;;;2.14;91.22
28628;BME280;15815;46.760;19.604;2023-01-29T07:43:24;101237.91;;;2.17;91.48
28628;BME280;15815;46.760;19.604;2023-01-29T07:45:50;101260.13;;;2.26;91.43
28628;BME280;15815;46.760;19.604;2023-01-29T07:48:16;101237.09;;;2.16;91.63
28628;BME280;15815;46.760;19.604;2023-01-29T07:50:42;101241.69;;;2.12;91.82
28628;BME280;15815;46.760;19.604;2023-01-29T07:53:12;101255.25;;;2.23;91.00
28628;BME280;15815;46.760;19.604;2023-01-29T07:55:38;101251.00;;;2.25;91.00
28628;BME280;15815;46.760;19.604;2023-01-29T07:58:03;101233.34;;;2.12;91.39
28628;BME280;15815;46.760;19.604;2023-01-29T08:00:30;101243.81;;;2.24;90.85
28628;BME280;15815;46.760;19.604;2023-01-29T08:03:08;101262.91;;;2.43;91.37
28628;BME280;15815;46.760;19.604;2023-01-29T08:05:35;101241.53;;;2.26;90.83
28628;BME280;15815;46.760;19.604;2023-01-29T08:08:00;101259.66;;;2.32;90.51
28628;BME280;15815;46.760;19.604;2023-01-29T08:10:29;101227.81;;;2.12;89.76
28628;BME280;15815;46.760;19.604;2023-01-29T08:12:56;101256.06;;;2.32;90.21
28628;BME280;15815;46.760;19.604;2023-01-29T08:15:25;101243.00;;;2.41;90.44
28628;BME280;15815;46.760;19.604;2023-01-29T08:17:51;101238.44;;;2.36;89.70
28628;BME280;15815;46.760;19.604;2023-01-29T08:20:17;101240.84;;;2.46;90.47
28628;BME280;15815;46.760;19.604;2023-01-29T08:22:43;101232.38;;;2.52;90.44
28628;BME280;15815;46.760;19.604;2023-01-29T08:25:13;101231.56;;;2.42;90.25
28628;BME280;15815;46.760;19.604;2023-01-29T08:27:39;101230.09;;;2.54;90.21
28628;BME280;15815;46.760;19.604;2023-01-29T08:30:08;101220.97;;;2.53;88.85
28628;BME280;15815;46.760;19.604;2023-01-29T08:32:34;101211.66;;;2.49;88.84
28628;BME280;15815;46.760;19.604;2023-01-29T08:34:59;101224.84;;;2.61;89.02
28628;BME280;15815;46.760;19.604;2023-01-29T08:37:26;101230.53;;;2.73;89.42
28628;BME280;15815;46.760;19.604;2023-01-29T08:39:52;101213.25;;;2.67;89.46
28628;BME280;15815;46.760;19.604;2023-01-29T08:42:17;101240.00;;;2.81;89.00
28628;BME280;15815;46.760;19.604;2023-01-29T08:44:43;101238.88;;;2.82;88.72
28628;BME280;15815;46.760;19.604;2023-01-29T08:47:08;101244.44;;;2.82;88.05
28628;BME280;15815;46.760;19.604;2023-01-29T08:49:34;101239.53;;;2.78;87.40
28628;BME280;15815;46.760;19.604;2023-01-29T08:52:00;101233.13;;;2.87;88.90
28628;BME280;15815;46.760;19.604;2023-01-29T08:54:25;101240.00;;;2.81;87.40
28628;BME280;15815;46.760;19.604;2023-01-29T08:56:51;101242.63;;;2.86;87.42
28628;BME280;15815;46.760;19.604;2023-01-29T08:59:16;101241.66;;;2.82;86.51
28628;BME280;15815;46.760;19.604;2023-01-29T09:01:42;101245.38;;;2.86;87.15
28628;BME280;15815;46.760;19.604;2023-01-29T09:04:10;101227.94;;;2.76;86.66
28628;BME280;15815;46.760;19.604;2023-01-29T09:06:36;101226.94;;;2.81;87.42
28628;BME280;15815;46.760;19.604;2023-01-29T09:09:01;101225.63;;;2.87;86.80
28628;BME280;15815;46.760;19.604;2023-01-29T09:11:27;101233.63;;;2.89;86.63
28628;BME280;15815;46.760;19.604;2023-01-29T09:13:52;101243.88;;;2.97;87.10
28628;BME280;15815;46.760;19.604;2023-01-29T09:16:18;101251.69;;;3.12;87.16
28628;BME280;15815;46.760;19.604;2023-01-29T09:18:44;101263.28;;;3.14;86.66
28628;BME280;15815;46.760;19.604;2023-01-29T09:21:09;101258.03;;;3.21;86.72
28628;BME280;15815;46.760;19.604;2023-01-29T09:23:39;101263.09;;;3.19;85.68
28628;BME280;15815;46.760;19.604;2023-01-29T09:26:06;101257.25;;;3.12;85.31
28628;BME280;15815;46.760;19.604;2023-01-29T09:28:35;101270.97;;;3.17;84.89
28628;BME280;15815;46.760;19.604;2023-01-29T09:31:01;101263.44;;;3.18;85.75
28628;BME280;15815;46.760;19.604;2023-01-29T09:33:27;101263.78;;;3.16;84.57
28628;BME280;15815;46.760;19.604;2023-01-29T09:35:52;101267.84;;;3.19;84.95
28628;BME280;15815;46.760;19.604;2023-01-29T09:38:18;101250.06;;;3.11;85.45
28628;BME280;15815;46.760;19.604;2023-01-29T09:40:48;101271.25;;;3.24;84.86
28628;BME280;15815;46.760;19.604;2023-01-29T09:45:58;101268.31;;;3.29;84.79
28628;BME280;15815;46.760;19.604;2023-01-29T09:48:27;101270.97;;;3.17;84.27
28628;BME280;15815;46.760;19.604;2023-01-29T09:50:56;101268.97;;;3.26;84.99
28628;BME280;15815;46.760;19.604;2023-01-29T09:53:39;101260.63;;;3.26;84.35
28628;BME280;15815;46.760;19.604;2023-01-29T09:56:19;101268.75;;;3.40;84.17
28628;BME280;15815;46.760;19.604;2023-01-29T09:58:44;101261.91;;;3.37;85.53
28628;BME280;15815;46.760;19.604;2023-01-29T10:09:27;101267.66;;;3.32;84.98
28628;BME280;15815;46.760;19.604;2023-01-29T10:14:50;101252.63;;;3.25;85.71
28628;BME280;15815;46.760;19.604;2023-01-29T10:20:31;101264.75;;;3.20;83.58
28628;BME280;15815;46.760;19.604;2023-01-29T10:23:20;101270.00;;;3.13;83.25
28628;BME280;15815;46.760;19.604;2023-01-29T10:25:51;101271.25;;;3.24;84.51
28628;BME280;15815;46.760;19.604;2023-01-29T10:28:42;101257.56;;;3.19;84.48
28628;BME280;15815;46.760;19.604;2023-01-29T10:31:23;101271.72;;;3.26;83.57
28628;BME280;15815;46.760;19.604;2023-01-29T10:33:52;101270.28;;;3.20;84.34
28628;BME280;15815;46.760;19.604;2023-01-29T10:36:22;101264.88;;;3.24;84.36
28628;BME280;15815;46.760;19.604;2023-01-29T10:38:51;101256.06;;;3.22;84.67
28628;BME280;15815;46.760;19.604;2023-01-29T10:44:07;101266.22;;;3.18;83.83
28628;BME280;15815;46.760;19.604;2023-01-29T11:00:22;101267.03;;;3.18;85.38
28628;BME280;15815;46.760;19.604;2023-01-29T11:02:50;101268.19;;;3.17;86.45
28628;BME280;15815;46.760;19.604;2023-01-29T11:05:22;101255.91;;;3.18;86.09
28628;BME280;15815;46.760;19.604;2023-01-29T11:08:00;101248.59;;;3.14;86.86
28628;BME280;15815;46.760;19.604;2023-01-29T11:10:30;101240.59;;;3.12;86.18
28628;BME280;15815;46.760;19.604;2023-01-29T11:12:58;101234.41;;;3.06;86.51
28628;BME280;15815;46.760;19.604;2023-01-29T11:15:28;101237.66;;;3.00;86.77
28628;BME280;15815;46.760;19.604;2023-01-29T11:18:06;101237.69;;;2.91;85.00
28628;BME280;15815;46.760;19.604;2023-01-29T11:20:32;101244.22;;;3.04;86.75
28628;BME280;15815;46.760;19.604;2023-01-29T11:22:58;101229.50;;;2.95;85.68
28628;BME280;15815;46.760;19.604;2023-01-29T11:25:24;101217.00;;;2.80;86.26
28628;BME280;15815;46.760;19.604;2023-01-29T11:28:01;101232.66;;;2.85;84.74
28628;BME280;15815;46.760;19.604;2023-01-29T11:30:38;101228.38;;;2.96;84.89
28628;BME280;15815;46.760;19.604;2023-01-29T11:33:25;101223.19;;;2.86;84.48
28628;BME280;15815;46.760;19.604;2023-01-29T11:35:49;101222.03;;;2.87;85.32
28628;BME280;15815;46.760;19.604;2023-01-29T11:40:42;101201.44;;;2.88;84.52
28628;BME280;15815;46.760;19.604;2023-01-29T11:45:44;101205.34;;;2.95;83.50
28628;BME280;15815;46.760;19.604;2023-01-29T11:48:17;101198.53;;;2.84;83.62
28628;BME280;15815;46.760;19.604;2023-01-29T11:50:50;101188.84;;;2.90;83.93
28628;BME280;15815;46.760;19.604;2023-01-29T11:53:36;101201.25;;;3.01;83.54
28628;BME280;15815;46.760;19.604;2023-01-29T11:56:50;101188.34;;;2.97;83.80
28628;BME280;15815;46.760;19.604;2023-01-29T11:58:52;101189.66;;;2.91;81.35
28628;BME280;15815;46.760;19.604;2023-01-29T12:01:29;101186.41;;;2.89;81.48
28628;BME280;15815;46.760;19.604;2023-01-29T12:03:57;101187.09;;;2.86;81.62
28628;BME280;15815;46.760;19.604;2023-01-29T12:06:34;101184.78;;;2.88;81.12
28628;BME280;15815;46.760;19.604;2023-01-29T12:09:08;101197.47;;;2.97;82.35
28628;BME280;15815;46.760;19.604;2023-01-29T12:11:34;101164.56;;;2.78;80.19
28628;BME280;15815;46.760;19.604;2023-01-29T12:14:04;101184.25;;;2.94;81.24
28628;BME280;15815;46.760;19.604;2023-01-29T12:16:37;101193.06;;;3.05;81.83
28628;BME280;15815;46.760;19.604;2023-01-29T12:19:15;101179.19;;;3.05;80.44
28628;BME280;15815;46.760;19.604;2023-01-29T12:22:16;101176.22;;;3.10;81.44
28628;BME280;15815;46.760;19.604;2023-01-29T12:25:02;101185.06;;;3.03;79.73
28628;BME280;15815;46.760;19.604;2023-01-29T12:27:59;101178.66;;;3.12;80.66
28628;BME280;15815;46.760;19.604;2023-01-29T12:32:59;101178.19;;;3.01;80.51
28628;BME280;15815;46.760;19.604;2023-01-29T12:35:49;101170.03;;;2.96;80.18
28628;BME280;15815;46.760;19.604;2023-01-29T12:38:19;101159.94;;;2.91;80.36
28628;BME280;15815;46.760;19.604;2023-01-29T12:40:56;101157.97;;;2.92;80.79
28628;BME280;15815;46.760;19.604;2023-01-29T12:43:46;101143.28;;;2.91;81.21
28628;BME280;15815;46.760;19.604;2023-01-29T12:46:21;101154.03;;;3.01;80.41
28628;BME280;15815;46.760;19.604;2023-01-29T12:48:49;101140.03;;;2.89;79.81
28628;BME280;15815;46.760;19.604;2023-01-29T12:51:22;101145.03;;;3.04;80.94
28628;BME280;15815;46.760;19.604;2023-01-29T12:54:04;101145.38;;;3.03;81.05
28628;BME280;15815;46.760;19.604;2023-01-29T12:56:37;101137.88;;;2.95;80.83
28628;BME280;15815;46.760;19.604;2023-01-29T12:59:12;101140.97;;;3.02;81.01
28628;BME280;15815;46.760;19.604;2023-01-29T13:01:52;101138.28;;;3.14;80.35
28628;BME280;15815;46.760;19.604;2023-01-29T13:04:36;101149.72;;;3.13;80.40
28628;BME280;15815;46.760;19.604;2023-01-29T13:07:14;101136.19;;;3.11;78.96
28628;BME280;15815;46.760;19.604;2023-01-29T13:09:45;101150.06;;;3.11;79.61
28628;BME280;15815;46.760;19.604;2023-01-29T13:12:17;101147.47;;;3.06;79.47
28628;BME280;15815;46.760;19.604;2023-01-29T13:15:12;101150.59;;;3.04;78.64
28628;BME280;15815;46.760;19.604;2023-01-29T13:17:45;101148.28;;;3.06;79.77
28628;BME280;15815;46.760;19.604;2023-01-29T13:20:39;101131.16;;;2.96;79.83
28628;BME280;15815;46.760;19.604;2023-01-29T13:23:20;101152.72;;;2.99;78.35
28628;BME280;15815;46.760;19.604;2023-01-29T13:25:49;101154.38;;;2.91;79.02
28628;BME280;15815;46.760;19.604;2023-01-29T13:28:21;101151.16;;;2.81;77.77
28628;BME280;15815;46.760;19.604;2023-01-29T13:31:19;101152.28;;;2.88;78.41
28628;BME280;15815;46.760;19.604;2023-01-29T13:33:53;101140.06;;;2.81;77.93
28628;BME280;15815;46.760;19.604;2023-01-29T13:36:24;101146.09;;;2.83;79.00
28628;BME280;15815;46.760;19.604;2023-01-29T13:39:05;101142.84;;;2.81;78.17
28628;BME280;15815;46.760;19.604;2023-01-29T13:41:42;101134.19;;;2.73;77.47
28628;BME280;15815;46.760;19.604;2023-01-29T13:44:20;101136.00;;;2.78;78.21
28628;BME280;15815;46.760;19.604;2023-01-29T13:47:19;101118.09;;;2.58;77.55
28628;BME280;15815;46.760;19.604;2023-01-29T13:49:56;101134.38;;;2.68;77.51
28628;BME280;15815;46.760;19.604;2023-01-29T13:52:35;101123.94;;;2.65;77.80
28628;BME280;15815;46.760;19.604;2023-01-29T13:55:25;101131.25;;;2.78;78.67
28628;BME280;15815;46.760;19.604;2023-01-29T13:57:53;101115.41;;;2.70;77.88
28628;BME280;15815;46.760;19.604;2023-01-29T14:05:42;101126.22;;;2.63;77.56
28628;BME280;15815;46.760;19.604;2023-01-29T14:10:37;101122.78;;;2.66;77.34
28628;BME280;15815;46.760;19.604;2023-01-29T14:15:41;101104.34;;;2.62;77.70
28628;BME280;15815;46.760;19.604;2023-01-29T14:23:01;101107.09;;;2.70;78.59
28628;BME280;15815;46.760;19.604;2023-01-29T14:25:33;101110.25;;;2.60;76.45
28628;BME280;15815;46.760;19.604;2023-01-29T14:28:02;101109.44;;;2.60;77.42
28628;BME280;15815;46.760;19.604;2023-01-29T14:30:31;101093.28;;;2.53;78.08
28628;BME280;15815;46.760;19.604;2023-01-29T14:32:59;101103.34;;;2.66;78.46
28628;BME280;15815;46.760;19.604;2023-01-29T14:35:28;101110.88;;;2.66;78.13
28628;BME280;15815;46.760;19.604;2023-01-29T14:37:57;101103.06;;;2.59;77.30
28628;BME280;15815;46.760;19.604;2023-01-29T14:40:27;101101.13;;;2.51;77.33
28628;BME280;15815;46.760;19.604;2023-01-29T14:43:06;101102.28;;;2.50;77.83
28628;BME280;15815;46.760;19.604;2023-01-29T14:45:37;101102.28;;;2.50;77.19
28628;BME280;15815;46.760;19.604;2023-01-29T14:50:39;101107.50;;;2.43;77.38
28628;BME280;15815;46.760;19.604;2023-01-29T14:53:26;101108.78;;;2.54;78.27